sensor_id;sensor_type;location;lat;lon;timestamp;P1;durP1;ratioP1;P2;durP2;ratioP2
53207;SDS011;39093;52.788;6.940;2023-04-25T00:01:46;24.33;;;5.50;;
53207;SDS011;39093;52.788;6.940;2023-04-25T00:04:14;23.85;;;4.65;;
53207;SDS011;39093;52.788;6.940;2023-04-25T00:06:42;31.35;;;5.93;;
53207;SDS011;39093;52.788;6.940;2023-04-25T00:09:09;34.85;;;5.05;;
53207;SDS011;39093;52.788;6.940;2023-04-25T00:11:37;19.42;;;4.15;;
53207;SDS011;39093;52.788;6.940;2023-04-25T00:14:04;21.05;;;3.88;;
53207;SDS011;39093;52.788;6.940;2023-04-25T00:16:32;36.13;;;5.60;;
53207;SDS011;39093;52.788;6.940;2023-04-25T00:19:01;29.15;;;6.80;;
53207;SDS011;39093;52.788;6.940;2023-04-25T00:21:29;24.58;;;4.68;;
53207;SDS011;39093;52.788;6.940;2023-04-25T00:23:58;31.67;;;6.28;;
53207;SDS011;39093;52.788;6.940;2023-04-25T00:26:25;27.35;;;5.50;;
53207;SDS011;39093;52.788;6.940;2023-04-25T00:28:53;24.77;;;5.55;;
53207;SDS011;39093;52.788;6.940;2023-04-25T00:31:20;16.27;;;4.22;;
53207;SDS011;39093;52.788;6.940;2023-04-25T00:33:48;19.95;;;4.32;;
53207;SDS011;39093;52.788;6.940;2023-04-25T00:36:15;17.63;;;4.53;;
53207;SDS011;39093;52.788;6.940;2023-04-25T00:38:43;21.13;;;4.63;;
53207;SDS011;39093;52.788;6.940;2023-04-25T00:41:10;25.60;;;4.85;;
53207;SDS011;39093;52.788;6.940;2023-04-25T00:43:37;25.83;;;4.93;;
53207;SDS011;39093;52.788;6.940;2023-04-25T00:46:06;26.50;;;4.50;;
53207;SDS011;39093;52.788;6.940;2023-04-25T00:48:33;34.08;;;6.03;;
53207;SDS011;39093;52.788;6.940;2023-04-25T00:51:03;23.13;;;6.03;;
53207;SDS011;39093;52.788;6.940;2023-04-25T00:53:30;22.70;;;5.10;;
53207;SDS011;39093;52.788;6.940;2023-04-25T00:55:58;28.38;;;5.10;;
53207;SDS011;39093;52.788;6.940;2023-04-25T00:58:25;35.63;;;5.90;;
53207;SDS011;39093;52.788;6.940;2023-04-25T01:00:55;25.20;;;5.22;;
53207;SDS011;39093;52.788;6.940;2023-04-25T01:03:23;31.13;;;5.57;;
53207;SDS011;39093;52.788;6.940;2023-04-25T01:05:51;19.90;;;5.57;;
53207;SDS011;39093;52.788;6.940;2023-04-25T01:08:18;25.98;;;5.53;;
53207;SDS011;39093;52.788;6.940;2023-04-25T01:10:47;30.38;;;6.47;;
53207;SDS011;39093;52.788;6.940;2023-04-25T01:13:14;20.00;;;4.35;;
53207;SDS011;39093;52.788;6.940;2023-04-25T01:15:41;28.02;;;5.85;;
53207;SDS011;39093;52.788;6.940;2023-04-25T01:18:08;25.75;;;4.95;;
53207;SDS011;39093;52.788;6.940;2023-04-25T01:20:35;21.58;;;5.20;;
53207;SDS011;39093;52.788;6.940;2023-04-25T01:23:04;26.95;;;5.03;;
53207;SDS011;39093;52.788;6.940;2023-04-25T01:25:31;25.27;;;5.68;;
53207;SDS011;39093;52.788;6.940;2023-04-25T01:28:00;23.85;;;5.07;;
53207;SDS011;39093;52.788;6.940;2023-04-25T01:30:27;29.73;;;4.65;;
53207;SDS011;39093;52.788;6.940;2023-04-25T01:32:55;28.60;;;5.07;;
53207;SDS011;39093;52.788;6.940;2023-04-25T01:35:23;32.80;;;5.13;;
53207;SDS011;39093;52.788;6.940;2023-04-25T01:37:51;20.73;;;4.68;;
53207;SDS011;39093;52.788;6.940;2023-04-25T01:40:21;18.80;;;5.55;;
53207;SDS011;39093;52.788;6.940;2023-04-25T01:42:49;21.73;;;5.13;;
53207;SDS011;39093;52.788;6.940;2023-04-25T01:45:17;20.52;;;5.15;;
53207;SDS011;39093;52.788;6.940;2023-04-25T01:47:44;20.13;;;4.78;;
53207;SDS011;39093;52.788;6.940;2023-04-25T01:50:16;26.10;;;4.38;;
53207;SDS011;39093;52.788;6.940;2023-04-25T01:52:45;21.38;;;4.50;;
53207;SDS011;39093;52.788;6.940;2023-04-25T01:55:11;21.88;;;4.80;;
53207;SDS011;39093;52.788;6.940;2023-04-25T01:57:38;15.23;;;3.92;;
53207;SDS011;39093;52.788;6.940;2023-04-25T02:00:06;21.80;;;4.85;;
53207;SDS011;39093;52.788;6.940;2023-04-25T02:02:35;21.92;;;4.20;;
53207;SDS011;39093;52.788;6.940;2023-04-25T02:05:02;22.35;;;4.28;;
53207;SDS011;39093;52.788;6.940;2023-04-25T02:07:29;24.30;;;5.60;;
53207;SDS011;39093;52.788;6.940;2023-04-25T02:09:56;17.80;;;4.05;;
53207;SDS011;39093;52.788;6.940;2023-04-25T02:12:23;21.00;;;5.32;;
53207;SDS011;39093;52.788;6.940;2023-04-25T02:14:52;19.70;;;3.83;;
53207;SDS011;39093;52.788;6.940;2023-04-25T02:17:19;20.25;;;5.10;;
53207;SDS011;39093;52.788;6.940;2023-04-25T02:19:47;29.17;;;5.97;;
53207;SDS011;39093;52.788;6.940;2023-04-25T02:22:14;20.40;;;4.90;;
53207;SDS011;39093;52.788;6.940;2023-04-25T02:24:41;25.95;;;5.13;;
53207;SDS011;39093;52.788;6.940;2023-04-25T02:27:08;20.55;;;4.82;;
53207;SDS011;39093;52.788;6.940;2023-04-25T02:29:36;25.45;;;4.55;;
53207;SDS011;39093;52.788;6.940;2023-04-25T02:32:03;20.77;;;4.72;;
53207;SDS011;39093;52.788;6.940;2023-04-25T02:34:30;24.60;;;4.75;;
53207;SDS011;39093;52.788;6.940;2023-04-25T02:36:57;23.48;;;5.07;;
53207;SDS011;39093;52.788;6.940;2023-04-25T02:39:24;21.85;;;4.82;;
53207;SDS011;39093;52.788;6.940;2023-04-25T02:41:53;31.60;;;4.97;;
53207;SDS011;39093;52.788;6.940;2023-04-25T02:44:20;30.15;;;5.22;;
53207;SDS011;39093;52.788;6.940;2023-04-25T02:46:48;22.83;;;6.13;;
53207;SDS011;39093;52.788;6.940;2023-04-25T02:49:15;24.08;;;4.28;;
53207;SDS011;39093;52.788;6.940;2023-04-25T02:51:42;20.65;;;5.00;;
53207;SDS011;39093;52.788;6.940;2023-04-25T02:54:08;26.27;;;5.05;;
53207;SDS011;39093;52.788;6.940;2023-04-25T02:56:36;21.17;;;4.50;;
53207;SDS011;39093;52.788;6.940;2023-04-25T02:59:03;31.23;;;4.88;;
53207;SDS011;39093;52.788;6.940;2023-04-25T03:01:29;19.92;;;4.63;;
53207;SDS011;39093;52.788;6.940;2023-04-25T03:03:56;27.38;;;4.97;;
53207;SDS011;39093;52.788;6.940;2023-04-25T03:06:23;29.52;;;6.40;;
53207;SDS011;39093;52.788;6.940;2023-04-25T03:08:50;20.40;;;4.07;;
53207;SDS011;39093;52.788;6.940;2023-04-25T03:11:17;26.23;;;5.25;;
53207;SDS011;39093;52.788;6.940;2023-04-25T03:13:46;26.77;;;6.30;;
53207;SDS011;39093;52.788;6.940;2023-04-25T03:16:13;28.42;;;5.82;;
53207;SDS011;39093;52.788;6.940;2023-04-25T03:18:40;21.15;;;3.88;;
53207;SDS011;39093;52.788;6.940;2023-04-25T03:21:07;24.98;;;4.32;;
53207;SDS011;39093;52.788;6.940;2023-04-25T03:23:34;24.65;;;5.50;;
53207;SDS011;39093;52.788;6.940;2023-04-25T03:26:02;18.60;;;4.10;;
53207;SDS011;39093;52.788;6.940;2023-04-25T03:28:29;22.27;;;4.90;;
53207;SDS011;39093;52.788;6.940;2023-04-25T03:30:56;31.30;;;4.70;;
53207;SDS011;39093;52.788;6.940;2023-04-25T03:33:23;22.13;;;4.50;;
53207;SDS011;39093;52.788;6.940;2023-04-25T03:35:50;33.88;;;6.13;;
53207;SDS011;39093;52.788;6.940;2023-04-25T03:38:17;27.10;;;5.50;;
53207;SDS011;39093;52.788;6.940;2023-04-25T03:40:45;22.05;;;4.55;;
53207;SDS011;39093;52.788;6.940;2023-04-25T03:43:12;19.02;;;4.65;;
53207;SDS011;39093;52.788;6.940;2023-04-25T03:45:39;24.35;;;5.70;;
53207;SDS011;39093;52.788;6.940;2023-04-25T03:48:06;22.58;;;5.00;;
53207;SDS011;39093;52.788;6.940;2023-04-25T03:50:33;18.50;;;4.75;;
53207;SDS011;39093;52.788;6.940;2023-04-25T03:53:00;19.92;;;4.88;;
53207;SDS011;39093;52.788;6.940;2023-04-25T03:55:27;23.35;;;4.35;;
53207;SDS011;39093;52.788;6.940;2023-04-25T03:57:54;20.17;;;4.35;;
53207;SDS011;39093;52.788;6.940;2023-04-25T04:00:21;21.85;;;4.18;;
53207;SDS011;39093;52.788;6.940;2023-04-25T04:02:47;35.42;;;4.45;;
53207;SDS011;39093;52.788;6.940;2023-04-25T04:05:14;18.27;;;4.85;;
53207;SDS011;39093;52.788;6.940;2023-04-25T04:07:42;19.60;;;4.00;;
53207;SDS011;39093;52.788;6.940;2023-04-25T04:10:09;19.50;;;3.63;;
53207;SDS011;39093;52.788;6.940;2023-04-25T04:12:37;23.55;;;4.07;;
53207;SDS011;39093;52.788;6.940;2023-04-25T04:15:04;24.67;;;4.57;;
53207;SDS011;39093;52.788;6.940;2023-04-25T04:17:32;24.25;;;3.83;;
53207;SDS011;39093;52.788;6.940;2023-04-25T04:20:01;23.20;;;4.18;;
53207;SDS011;39093;52.788;6.940;2023-04-25T04:22:29;17.88;;;2.92;;
53207;SDS011;39093;52.788;6.940;2023-04-25T04:24:56;20.02;;;3.72;;
53207;SDS011;39093;52.788;6.940;2023-04-25T04:27:23;22.08;;;4.30;;
53207;SDS011;39093;52.788;6.940;2023-04-25T04:29:50;20.50;;;3.88;;
53207;SDS011;39093;52.788;6.940;2023-04-25T04:32:19;17.85;;;3.50;;
53207;SDS011;39093;52.788;6.940;2023-04-25T04:34:46;16.92;;;3.85;;
53207;SDS011;39093;52.788;6.940;2023-04-25T04:37:13;23.00;;;4.60;;
53207;SDS011;39093;52.788;6.940;2023-04-25T04:39:41;18.42;;;3.47;;
53207;SDS011;39093;52.788;6.940;2023-04-25T04:42:07;18.23;;;4.05;;
53207;SDS011;39093;52.788;6.940;2023-04-25T04:44:34;16.00;;;3.05;;
53207;SDS011;39093;52.788;6.940;2023-04-25T04:47:02;14.13;;;3.03;;
53207;SDS011;39093;52.788;6.940;2023-04-25T04:49:32;17.27;;;2.85;;
53207;SDS011;39093;52.788;6.940;2023-04-25T04:51:59;18.95;;;3.55;;
53207;SDS011;39093;52.788;6.940;2023-04-25T04:54:26;14.60;;;2.63;;
53207;SDS011;39093;52.788;6.940;2023-04-25T04:56:53;12.98;;;3.00;;
53207;SDS011;39093;52.788;6.940;2023-04-25T04:59:20;8.27;;;1.90;;
53207;SDS011;39093;52.788;6.940;2023-04-25T05:01:47;10.40;;;1.80;;
53207;SDS011;39093;52.788;6.940;2023-04-25T05:04:14;9.55;;;2.10;;
53207;SDS011;39093;52.788;6.940;2023-04-25T05:06:41;13.70;;;3.08;;
53207;SDS011;39093;52.788;6.940;2023-04-25T05:09:08;12.18;;;1.92;;
53207;SDS011;39093;52.788;6.940;2023-04-25T05:11:35;8.00;;;2.17;;
53207;SDS011;39093;52.788;6.940;2023-04-25T05:14:02;8.30;;;1.98;;
53207;SDS011;39093;52.788;6.940;2023-04-25T05:16:29;8.55;;;2.30;;
53207;SDS011;39093;52.788;6.940;2023-04-25T05:18:56;10.38;;;2.63;;
53207;SDS011;39093;52.788;6.940;2023-04-25T05:21:23;11.02;;;2.63;;
53207;SDS011;39093;52.788;6.940;2023-04-25T05:23:50;9.13;;;1.80;;
53207;SDS011;39093;52.788;6.940;2023-04-25T05:26:17;12.25;;;3.03;;
53207;SDS011;39093;52.788;6.940;2023-04-25T05:28:44;16.63;;;2.58;;
53207;SDS011;39093;52.788;6.940;2023-04-25T05:31:11;10.77;;;2.55;;
53207;SDS011;39093;52.788;6.940;2023-04-25T05:33:38;13.43;;;2.30;;
53207;SDS011;39093;52.788;6.940;2023-04-25T05:36:05;18.45;;;2.22;;
53207;SDS011;39093;52.788;6.940;2023-04-25T05:38:33;11.70;;;2.00;;
53207;SDS011;39093;52.788;6.940;2023-04-25T05:41:00;11.55;;;2.35;;
53207;SDS011;39093;52.788;6.940;2023-04-25T05:43:27;11.82;;;2.20;;
53207;SDS011;39093;52.788;6.940;2023-04-25T05:45:55;14.65;;;1.95;;
53207;SDS011;39093;52.788;6.940;2023-04-25T05:48:22;10.40;;;1.90;;
53207;SDS011;39093;52.788;6.940;2023-04-25T05:50:49;10.05;;;1.88;;
53207;SDS011;39093;52.788;6.940;2023-04-25T05:53:18;10.95;;;2.20;;
53207;SDS011;39093;52.788;6.940;2023-04-25T05:55:46;12.48;;;2.85;;
53207;SDS011;39093;52.788;6.940;2023-04-25T05:58:13;15.65;;;2.88;;
53207;SDS011;39093;52.788;6.940;2023-04-25T06:00:40;12.55;;;2.97;;
53207;SDS011;39093;52.788;6.940;2023-04-25T06:03:07;16.33;;;3.97;;
53207;SDS011;39093;52.788;6.940;2023-04-25T06:05:36;9.07;;;2.65;;
53207;SDS011;39093;52.788;6.940;2023-04-25T06:08:03;11.13;;;2.53;;
53207;SDS011;39093;52.788;6.940;2023-04-25T06:10:30;7.72;;;2.00;;
53207;SDS011;39093;52.788;6.940;2023-04-25T06:12:57;12.02;;;2.08;;
53207;SDS011;39093;52.788;6.940;2023-04-25T06:15:24;10.63;;;3.03;;
53207;SDS011;39093;52.788;6.940;2023-04-25T06:17:54;10.40;;;1.85;;
53207;SDS011;39093;52.788;6.940;2023-04-25T06:20:21;10.60;;;2.42;;
53207;SDS011;39093;52.788;6.940;2023-04-25T06:22:50;10.25;;;2.28;;
53207;SDS011;39093;52.788;6.940;2023-04-25T06:25:20;10.40;;;2.38;;
53207;SDS011;39093;52.788;6.940;2023-04-25T06:27:47;12.63;;;2.38;;
53207;SDS011;39093;52.788;6.940;2023-04-25T06:30:14;14.52;;;3.13;;
53207;SDS011;39093;52.788;6.940;2023-04-25T06:32:42;13.80;;;3.05;;
53207;SDS011;39093;52.788;6.940;2023-04-25T06:35:09;15.27;;;2.40;;
53207;SDS011;39093;52.788;6.940;2023-04-25T06:37:36;13.10;;;2.92;;
53207;SDS011;39093;52.788;6.940;2023-04-25T06:40:03;8.80;;;2.30;;
53207;SDS011;39093;52.788;6.940;2023-04-25T06:42:31;16.30;;;3.25;;
53207;SDS011;39093;52.788;6.940;2023-04-25T06:44:58;16.60;;;2.67;;
53207;SDS011;39093;52.788;6.940;2023-04-25T06:47:24;24.73;;;12.73;;
53207;SDS011;39093;52.788;6.940;2023-04-25T06:49:51;17.80;;;2.45;;
53207;SDS011;39093;52.788;6.940;2023-04-25T06:52:18;17.27;;;2.80;;
53207;SDS011;39093;52.788;6.940;2023-04-25T06:54:45;12.80;;;2.38;;
53207;SDS011;39093;52.788;6.940;2023-04-25T06:57:12;18.10;;;2.60;;
53207;SDS011;39093;52.788;6.940;2023-04-25T06:59:39;13.20;;;2.60;;
53207;SDS011;39093;52.788;6.940;2023-04-25T07:02:06;8.85;;;1.67;;
53207;SDS011;39093;52.788;6.940;2023-04-25T07:04:33;13.15;;;2.55;;
53207;SDS011;39093;52.788;6.940;2023-04-25T07:07:00;16.00;;;3.15;;
53207;SDS011;39093;52.788;6.940;2023-04-25T07:09:29;14.10;;;2.70;;
53207;SDS011;39093;52.788;6.940;2023-04-25T07:11:56;12.57;;;1.98;;
53207;SDS011;39093;52.788;6.940;2023-04-25T07:14:23;9.65;;;2.28;;
53207;SDS011;39093;52.788;6.940;2023-04-25T07:16:50;12.98;;;2.17;;
53207;SDS011;39093;52.788;6.940;2023-04-25T07:19:17;14.40;;;2.67;;
53207;SDS011;39093;52.788;6.940;2023-04-25T07:21:44;10.45;;;2.10;;
53207;SDS011;39093;52.788;6.940;2023-04-25T07:24:11;13.65;;;2.20;;
53207;SDS011;39093;52.788;6.940;2023-04-25T07:26:41;19.10;;;3.20;;
53207;SDS011;39093;52.788;6.940;2023-04-25T07:29:08;10.70;;;2.97;;
53207;SDS011;39093;52.788;6.940;2023-04-25T07:31:35;16.65;;;3.28;;
53207;SDS011;39093;52.788;6.940;2023-04-25T07:34:02;14.57;;;2.60;;
53207;SDS011;39093;52.788;6.940;2023-04-25T07:36:29;11.43;;;2.88;;
53207;SDS011;39093;52.788;6.940;2023-04-25T07:38:57;7.97;;;1.88;;
53207;SDS011;39093;52.788;6.940;2023-04-25T07:41:24;11.18;;;2.08;;
53207;SDS011;39093;52.788;6.940;2023-04-25T07:43:50;13.95;;;2.13;;
53207;SDS011;39093;52.788;6.940;2023-04-25T07:46:17;12.50;;;2.05;;
53207;SDS011;39093;52.788;6.940;2023-04-25T07:48:44;8.10;;;1.98;;
53207;SDS011;39093;52.788;6.940;2023-04-25T07:51:11;6.60;;;1.58;;
53207;SDS011;39093;52.788;6.940;2023-04-25T07:53:38;10.63;;;1.95;;
53207;SDS011;39093;52.788;6.940;2023-04-25T07:56:05;9.57;;;2.25;;
53207;SDS011;39093;52.788;6.940;2023-04-25T07:58:33;11.65;;;1.70;;
53207;SDS011;39093;52.788;6.940;2023-04-25T08:00:59;7.28;;;1.67;;
53207;SDS011;39093;52.788;6.940;2023-04-25T08:03:26;10.52;;;2.70;;
53207;SDS011;39093;52.788;6.940;2023-04-25T08:05:54;7.30;;;1.52;;
53207;SDS011;39093;52.788;6.940;2023-04-25T08:08:22;9.95;;;1.80;;
53207;SDS011;39093;52.788;6.940;2023-04-25T08:10:49;13.65;;;3.08;;
53207;SDS011;39093;52.788;6.940;2023-04-25T08:13:15;12.90;;;2.58;;
53207;SDS011;39093;52.788;6.940;2023-04-25T08:15:42;9.20;;;1.98;;
53207;SDS011;39093;52.788;6.940;2023-04-25T08:18:09;6.93;;;2.08;;
53207;SDS011;39093;52.788;6.940;2023-04-25T08:20:36;9.18;;;1.92;;
53207;SDS011;39093;52.788;6.940;2023-04-25T08:23:03;6.97;;;1.73;;
53207;SDS011;39093;52.788;6.940;2023-04-25T08:25:30;8.95;;;2.33;;
53207;SDS011;39093;52.788;6.940;2023-04-25T08:27:57;7.85;;;1.65;;
53207;SDS011;39093;52.788;6.940;2023-04-25T08:30:25;12.70;;;2.13;;
53207;SDS011;39093;52.788;6.940;2023-04-25T08:32:53;10.13;;;1.65;;
53207;SDS011;39093;52.788;6.940;2023-04-25T08:35:20;7.50;;;1.77;;
53207;SDS011;39093;52.788;6.940;2023-04-25T08:37:47;6.45;;;1.05;;
53207;SDS011;39093;52.788;6.940;2023-04-25T08:40:15;8.73;;;1.73;;
53207;SDS011;39093;52.788;6.940;2023-04-25T08:42:42;6.63;;;2.17;;
53207;SDS011;39093;52.788;6.940;2023-04-25T08:45:09;10.75;;;2.03;;
53207;SDS011;39093;52.788;6.940;2023-04-25T08:47:39;7.32;;;1.98;;
53207;SDS011;39093;52.788;6.940;2023-04-25T08:50:08;7.72;;;1.95;;
53207;SDS011;39093;52.788;6.940;2023-04-25T08:52:35;9.95;;;1.60;;
53207;SDS011;39093;52.788;6.940;2023-04-25T08:55:05;10.75;;;1.77;;
53207;SDS011;39093;52.788;6.940;2023-04-25T08:57:35;6.28;;;1.63;;
53207;SDS011;39093;52.788;6.940;2023-04-25T09:00:03;8.70;;;1.83;;
53207;SDS011;39093;52.788;6.940;2023-04-25T09:02:30;8.55;;;1.70;;
53207;SDS011;39093;52.788;6.940;2023-04-25T09:04:58;10.82;;;3.50;;
53207;SDS011;39093;52.788;6.940;2023-04-25T09:07:26;9.25;;;1.88;;
53207;SDS011;39093;52.788;6.940;2023-04-25T09:09:53;7.15;;;1.30;;
53207;SDS011;39093;52.788;6.940;2023-04-25T09:12:20;7.82;;;2.30;;
53207;SDS011;39093;52.788;6.940;2023-04-25T09:15:05;9.60;;;1.30;;
53207;SDS011;39093;52.788;6.940;2023-04-25T09:17:33;10.18;;;1.70;;
53207;SDS011;39093;52.788;6.940;2023-04-25T09:20:05;4.70;;;0.95;;
53207;SDS011;39093;52.788;6.940;2023-04-25T09:22:35;6.07;;;1.75;;
53207;SDS011;39093;52.788;6.940;2023-04-25T09:25:12;7.55;;;1.75;;
53207;SDS011;39093;52.788;6.940;2023-04-25T09:27:50;6.57;;;1.40;;
53207;SDS011;39093;52.788;6.940;2023-04-25T09:30:18;6.50;;;1.30;;
53207;SDS011;39093;52.788;6.940;2023-04-25T09:32:56;11.52;;;1.45;;
53207;SDS011;39093;52.788;6.940;2023-04-25T09:35:25;4.88;;;1.50;;
53207;SDS011;39093;52.788;6.940;2023-04-25T09:37:55;7.90;;;1.83;;
53207;SDS011;39093;52.788;6.940;2023-04-25T09:40:22;6.20;;;1.25;;
53207;SDS011;39093;52.788;6.940;2023-04-25T09:42:49;5.35;;;1.27;;
53207;SDS011;39093;52.788;6.940;2023-04-25T09:45:16;5.47;;;1.63;;
53207;SDS011;39093;52.788;6.940;2023-04-25T09:47:43;6.90;;;1.40;;
53207;SDS011;39093;52.788;6.940;2023-04-25T09:50:14;5.32;;;1.45;;
53207;SDS011;39093;52.788;6.940;2023-04-25T09:52:42;12.63;;;1.60;;
53207;SDS011;39093;52.788;6.940;2023-04-25T09:55:09;6.47;;;1.17;;
53207;SDS011;39093;52.788;6.940;2023-04-25T09:57:37;3.63;;;1.17;;
53207;SDS011;39093;52.788;6.940;2023-04-25T10:00:07;5.10;;;0.93;;
53207;SDS011;39093;52.788;6.940;2023-04-25T10:02:42;2.28;;;1.25;;
53207;SDS011;39093;52.788;6.940;2023-04-25T10:05:13;2.20;;;0.82;;
53207;SDS011;39093;52.788;6.940;2023-04-25T10:07:40;4.50;;;1.40;;
53207;SDS011;39093;52.788;6.940;2023-04-25T10:10:07;5.35;;;1.30;;
53207;SDS011;39093;52.788;6.940;2023-04-25T10:12:37;4.65;;;1.38;;
53207;SDS011;39093;52.788;6.940;2023-04-25T10:15:06;3.78;;;1.00;;
53207;SDS011;39093;52.788;6.940;2023-04-25T10:17:36;6.85;;;1.25;;
53207;SDS011;39093;52.788;6.940;2023-04-25T10:20:03;9.02;;;2.00;;
53207;SDS011;39093;52.788;6.940;2023-04-25T10:22:34;8.07;;;1.52;;
53207;SDS011;39093;52.788;6.940;2023-04-25T10:25:07;5.78;;;1.48;;
53207;SDS011;39093;52.788;6.940;2023-04-25T10:27:35;5.47;;;1.30;;
53207;SDS011;39093;52.788;6.940;2023-04-25T10:30:04;7.43;;;1.20;;
53207;SDS011;39093;52.788;6.940;2023-04-25T10:32:36;7.55;;;1.45;;
53207;SDS011;39093;52.788;6.940;2023-04-25T10:35:23;8.43;;;1.55;;
53207;SDS011;39093;52.788;6.940;2023-04-25T10:40:40;5.05;;;1.23;;
53207;SDS011;39093;52.788;6.940;2023-04-25T10:46:25;7.78;;;1.55;;
53207;SDS011;39093;52.788;6.940;2023-04-25T10:49:00;5.10;;;1.77;;
53207;SDS011;39093;52.788;6.940;2023-04-25T10:51:30;5.07;;;1.23;;
53207;SDS011;39093;52.788;6.940;2023-04-25T10:54:20;4.65;;;1.15;;
53207;SDS011;39093;52.788;6.940;2023-04-25T10:56:51;4.93;;;1.05;;
53207;SDS011;39093;52.788;6.940;2023-04-25T10:59:19;4.07;;;1.13;;
53207;SDS011;39093;52.788;6.940;2023-04-25T11:01:48;4.50;;;1.38;;
53207;SDS011;39093;52.788;6.940;2023-04-25T11:04:29;6.10;;;1.92;;
53207;SDS011;39093;52.788;6.940;2023-04-25T11:07:15;5.95;;;0.90;;
53207;SDS011;39093;52.788;6.940;2023-04-25T11:09:44;9.77;;;1.50;;
53207;SDS011;39093;52.788;6.940;2023-04-25T11:12:11;4.40;;;1.55;;
53207;SDS011;39093;52.788;6.940;2023-04-25T11:14:39;10.75;;;1.92;;
53207;SDS011;39093;52.788;6.940;2023-04-25T11:17:11;7.43;;;1.40;;
53207;SDS011;39093;52.788;6.940;2023-04-25T11:19:38;6.57;;;1.88;;
53207;SDS011;39093;52.788;6.940;2023-04-25T11:22:05;7.38;;;1.65;;
53207;SDS011;39093;52.788;6.940;2023-04-25T11:24:34;4.40;;;1.50;;
53207;SDS011;39093;52.788;6.940;2023-04-25T11:27:03;7.63;;;1.63;;
53207;SDS011;39093;52.788;6.940;2023-04-25T11:29:32;6.75;;;1.45;;
53207;SDS011;39093;52.788;6.940;2023-04-25T11:32:00;4.97;;;1.27;;
53207;SDS011;39093;52.788;6.940;2023-04-25T11:34:28;10.18;;;2.13;;
53207;SDS011;39093;52.788;6.940;2023-04-25T11:36:57;9.73;;;1.45;;
53207;SDS011;39093;52.788;6.940;2023-04-25T11:39:26;6.10;;;1.70;;
53207;SDS011;39093;52.788;6.940;2023-04-25T11:41:53;7.82;;;1.65;;
53207;SDS011;39093;52.788;6.940;2023-04-25T11:44:21;10.50;;;1.73;;
53207;SDS011;39093;52.788;6.940;2023-04-25T11:46:48;6.70;;;1.50;;
53207;SDS011;39093;52.788;6.940;2023-04-25T11:49:15;7.80;;;1.50;;
53207;SDS011;39093;52.788;6.940;2023-04-25T11:51:47;3.45;;;1.45;;
53207;SDS011;39093;52.788;6.940;2023-04-25T11:54:14;6.65;;;1.33;;
53207;SDS011;39093;52.788;6.940;2023-04-25T11:56:42;5.72;;;1.35;;
53207;SDS011;39093;52.788;6.940;2023-04-25T11:59:09;6.07;;;0.98;;
53207;SDS011;39093;52.788;6.940;2023-04-25T12:01:39;3.30;;;1.08;;
53207;SDS011;39093;52.788;6.940;2023-04-25T12:04:14;5.57;;;1.50;;
53207;SDS011;39093;52.788;6.940;2023-04-25T12:06:43;3.20;;;0.85;;
53207;SDS011;39093;52.788;6.940;2023-04-25T12:09:15;4.75;;;1.00;;
53207;SDS011;39093;52.788;6.940;2023-04-25T12:12:02;6.95;;;1.65;;
53207;SDS011;39093;52.788;6.940;2023-04-25T12:14:30;7.07;;;1.13;;
53207;SDS011;39093;52.788;6.940;2023-04-25T12:16:59;7.68;;;1.40;;
53207;SDS011;39093;52.788;6.940;2023-04-25T12:19:32;5.40;;;1.10;;
53207;SDS011;39093;52.788;6.940;2023-04-25T12:22:02;4.95;;;1.10;;
53207;SDS011;39093;52.788;6.940;2023-04-25T12:24:44;8.23;;;1.95;;
53207;SDS011;39093;52.788;6.940;2023-04-25T12:27:13;7.30;;;1.55;;
53207;SDS011;39093;52.788;6.940;2023-04-25T12:29:52;7.78;;;1.35;;
53207;SDS011;39093;52.788;6.940;2023-04-25T12:32:20;7.15;;;1.55;;
53207;SDS011;39093;52.788;6.940;2023-04-25T12:34:48;5.47;;;1.13;;
53207;SDS011;39093;52.788;6.940;2023-04-25T12:37:18;6.03;;;1.60;;
53207;SDS011;39093;52.788;6.940;2023-04-25T12:39:45;9.55;;;1.73;;
53207;SDS011;39093;52.788;6.940;2023-04-25T12:42:18;5.65;;;1.20;;
53207;SDS011;39093;52.788;6.940;2023-04-25T12:44:44;6.18;;;1.50;;
53207;SDS011;39093;52.788;6.940;2023-04-25T12:47:12;11.70;;;1.80;;
53207;SDS011;39093;52.788;6.940;2023-04-25T12:49:40;9.00;;;1.52;;
53207;SDS011;39093;52.788;6.940;2023-04-25T12:52:07;9.80;;;1.27;;
53207;SDS011;39093;52.788;6.940;2023-04-25T12:54:34;6.70;;;1.35;;
53207;SDS011;39093;52.788;6.940;2023-04-25T12:57:01;2.88;;;0.95;;
53207;SDS011;39093;52.788;6.940;2023-04-25T12:59:29;6.20;;;1.58;;
53207;SDS011;39093;52.788;6.940;2023-04-25T13:01:56;6.75;;;1.90;;
53207;SDS011;39093;52.788;6.940;2023-04-25T13:04:23;5.68;;;0.88;;
53207;SDS011;39093;52.788;6.940;2023-04-25T13:06:50;5.93;;;1.15;;
53207;SDS011;39093;52.788;6.940;2023-04-25T13:09:17;12.02;;;1.63;;
53207;SDS011;39093;52.788;6.940;2023-04-25T13:11:44;4.85;;;0.80;;
53207;SDS011;39093;52.788;6.940;2023-04-25T13:14:12;6.50;;;1.20;;
53207;SDS011;39093;52.788;6.940;2023-04-25T13:16:39;7.65;;;1.52;;
53207;SDS011;39093;52.788;6.940;2023-04-25T13:19:06;6.47;;;1.70;;
53207;SDS011;39093;52.788;6.940;2023-04-25T13:21:37;4.70;;;0.82;;
53207;SDS011;39093;52.788;6.940;2023-04-25T13:24:04;5.75;;;1.75;;
53207;SDS011;39093;52.788;6.940;2023-04-25T13:26:31;3.17;;;1.30;;
53207;SDS011;39093;52.788;6.940;2023-04-25T13:28:58;6.15;;;1.42;;
53207;SDS011;39093;52.788;6.940;2023-04-25T13:31:26;6.93;;;1.08;;
53207;SDS011;39093;52.788;6.940;2023-04-25T13:33:53;6.47;;;1.17;;
53207;SDS011;39093;52.788;6.940;2023-04-25T13:36:20;5.38;;;1.13;;
53207;SDS011;39093;52.788;6.940;2023-04-25T13:38:47;4.15;;;1.33;;
53207;SDS011;39093;52.788;6.940;2023-04-25T13:41:15;5.85;;;1.33;;
53207;SDS011;39093;52.788;6.940;2023-04-25T13:43:45;3.25;;;0.70;;
53207;SDS011;39093;52.788;6.940;2023-04-25T13:46:15;5.40;;;1.10;;
53207;SDS011;39093;52.788;6.940;2023-04-25T13:49:02;6.45;;;1.42;;
53207;SDS011;39093;52.788;6.940;2023-04-25T13:51:37;6.28;;;1.20;;
53207;SDS011;39093;52.788;6.940;2023-04-25T13:54:04;4.88;;;1.13;;
53207;SDS011;39093;52.788;6.940;2023-04-25T13:56:31;4.78;;;0.85;;
53207;SDS011;39093;52.788;6.940;2023-04-25T13:58:58;4.05;;;0.90;;
53207;SDS011;39093;52.788;6.940;2023-04-25T14:01:25;5.25;;;1.10;;
53207;SDS011;39093;52.788;6.940;2023-04-25T14:03:52;4.07;;;0.93;;
53207;SDS011;39093;52.788;6.940;2023-04-25T14:06:21;3.13;;;0.80;;
53207;SDS011;39093;52.788;6.940;2023-04-25T14:08:50;4.43;;;1.15;;
53207;SDS011;39093;52.788;6.940;2023-04-25T14:11:17;6.38;;;1.10;;
53207;SDS011;39093;52.788;6.940;2023-04-25T14:13:46;7.30;;;1.50;;
53207;SDS011;39093;52.788;6.940;2023-04-25T14:16:15;7.80;;;1.58;;
53207;SDS011;39093;52.788;6.940;2023-04-25T14:18:43;8.20;;;1.25;;
53207;SDS011;39093;52.788;6.940;2023-04-25T14:21:10;6.45;;;1.10;;
53207;SDS011;39093;52.788;6.940;2023-04-25T14:23:46;3.20;;;0.85;;
53207;SDS011;39093;52.788;6.940;2023-04-25T14:26:14;4.47;;;0.93;;
53207;SDS011;39093;52.788;6.940;2023-04-25T14:28:41;5.57;;;0.90;;
53207;SDS011;39093;52.788;6.940;2023-04-25T14:31:08;3.33;;;1.00;;
53207;SDS011;39093;52.788;6.940;2023-04-25T14:33:35;4.15;;;0.90;;
53207;SDS011;39093;52.788;6.940;2023-04-25T14:36:03;3.72;;;1.00;;
53207;SDS011;39093;52.788;6.940;2023-04-25T14:38:30;3.58;;;1.10;;
53207;SDS011;39093;52.788;6.940;2023-04-25T14:40:57;9.07;;;1.58;;
53207;SDS011;39093;52.788;6.940;2023-04-25T14:43:24;6.30;;;1.75;;
53207;SDS011;39093;52.788;6.940;2023-04-25T14:45:51;7.85;;;1.58;;
53207;SDS011;39093;52.788;6.940;2023-04-25T14:48:18;8.27;;;1.50;;
53207;SDS011;39093;52.788;6.940;2023-04-25T14:50:46;6.22;;;1.55;;
53207;SDS011;39093;52.788;6.940;2023-04-25T14:53:13;8.63;;;1.40;;